Time;durP1;ratioP1;P1;durP2;ratioP2;P2;SDS_P1;SDS_P2;PMS_P1;PMS_P2;Temp;Humidity;BMP_temperature;BMP_pressure;BME280_temperature;BME280_humidity;BME280_pressure;Samples;Min_cycle;Max_cycle;Signal;HPM_P1;HPM_P2
2023/12/31 00:01:47;;;;;;;10.87;6.30;;;1.10;99.90;;;;;;4996825;28;20042;-83
2023/12/31 00:04:13;;;;;;;8.83;5.73;;;1.10;99.90;;;;;;4999271;28;20391;-83
2023/12/31 00:06:38;;;;;;;12.57;6.67;;;1.10;99.90;;;;;;4999612;28;20073;-82
2023/12/31 00:09:04;;;;;;;10.23;6.27;;;1.10;99.90;;;;;;4999652;28;20098;-83
2023/12/31 00:11:30;;;;;;;10.17;5.73;;;1.00;99.90;;;;;;4999435;28;20038;-83
2023/12/31 00:13:55;;;;;;;9.10;6.53;;;1.00;99.90;;;;;;4998165;28;20041;-82
2023/12/31 00:16:21;;;;;;;10.07;5.63;;;1.00;99.90;;;;;;4998330;28;20224;-83
2023/12/31 00:18:47;;;;;;;10.00;5.87;;;1.00;99.90;;;;;;4980826;28;20165;-83
2023/12/31 00:21:12;;;;;;;10.43;6.27;;;1.00;99.90;;;;;;5000592;28;20041;-82
2023/12/31 00:23:38;;;;;;;10.30;6.97;;;1.00;99.90;;;;;;4998709;28;20039;-83
2023/12/31 00:26:03;;;;;;;10.00;6.83;;;1.00;99.90;;;;;;4996158;28;20057;-83
2023/12/31 00:28:29;;;;;;;12.63;8.37;;;0.90;99.90;;;;;;4997737;28;20095;-83
2023/12/31 00:30:54;;;;;;;25.23;15.03;;;0.90;99.90;;;;;;4996610;28;20045;-83
2023/12/31 00:33:20;;;;;;;28.03;16.70;;;0.90;99.90;;;;;;4997120;28;20030;-83
2023/12/31 00:35:46;;;;;;;27.43;16.07;;;0.90;99.90;;;;;;4995568;28;20556;-83
2023/12/31 00:38:11;;;;;;;30.70;18.93;;;0.90;99.90;;;;;;4994569;28;20017;-83
2023/12/31 00:40:37;;;;;;;28.37;18.07;;;0.90;99.90;;;;;;4995082;28;20040;-83
2023/12/31 00:43:02;;;;;;;27.63;18.07;;;0.90;99.90;;;;;;4995072;28;20054;-83
2023/12/31 00:45:28;;;;;;;33.47;19.83;;;0.90;99.90;;;;;;4997386;28;20034;-83
2023/12/31 00:47:53;;;;;;;29.77;17.67;;;0.90;99.90;;;;;;4996376;28;20041;-83
2023/12/31 00:50:19;;;;;;;21.40;13.70;;;1.00;99.90;;;;;;4996918;28;20041;-83
2023/12/31 00:52:45;;;;;;;25.50;15.40;;;0.90;99.90;;;;;;4997856;28;20445;-83
2023/12/31 00:55:10;;;;;;;24.07;15.60;;;1.00;99.90;;;;;;5000318;28;20026;-83
2023/12/31 00:57:36;;;;;;;25.90;15.00;;;1.00;99.90;;;;;;4996800;28;20035;-83
2023/12/31 01:00:04;;;;;;;24.77;15.10;;;1.00;99.90;;;;;;5000706;28;20048;-83
2023/12/31 01:02:30;;;;;;;23.70;13.93;;;1.00;99.90;;;;;;5002103;28;20050;-83
2023/12/31 01:04:55;;;;;;;18.73;12.33;;;0.90;99.90;;;;;;4999023;28;20065;-84
2023/12/31 01:07:21;;;;;;;23.10;13.47;;;0.90;99.90;;;;;;4998046;28;20083;-83
2023/12/31 01:09:47;;;;;;;22.33;13.03;;;0.90;99.90;;;;;;4997736;28;20031;-83
2023/12/31 01:12:13;;;;;;;22.13;12.07;;;0.90;99.90;;;;;;4996808;28;20038;-83
2023/12/31 01:14:38;;;;;;;20.00;12.50;;;0.90;99.90;;;;;;4996508;28;20022;-83
2023/12/31 01:17:04;;;;;;;17.93;10.77;;;0.90;99.90;;;;;;4997499;28;20200;-83
2023/12/31 01:19:29;;;;;;;23.03;11.57;;;0.90;99.90;;;;;;4997237;28;20474;-83
2023/12/31 01:21:58;;;;;;;18.37;10.23;;;0.90;99.90;;;;;;4997850;28;20274;-83
2023/12/31 01:24:23;;;;;;;18.77;10.80;;;0.90;99.90;;;;;;4997028;28;20023;-84
2023/12/31 01:26:49;;;;;;;15.57;8.57;;;0.90;99.90;;;;;;4993907;28;20034;-83
2023/12/31 01:29:14;;;;;;;14.70;8.37;;;0.90;99.90;;;;;;4995628;28;20038;-83
2023/12/31 01:31:40;;;;;;;13.70;8.13;;;0.90;99.90;;;;;;4998353;28;20045;-83
2023/12/31 01:34:06;;;;;;;15.07;8.00;;;0.90;99.90;;;;;;4996086;28;20034;-84
2023/12/31 01:36:31;;;;;;;14.03;6.97;;;0.90;99.90;;;;;;4995203;28;20030;-83
2023/12/31 01:38:57;;;;;;;15.20;7.40;;;0.80;99.90;;;;;;4996131;28;20573;-84
2023/12/31 01:41:22;;;;;;;14.13;8.20;;;0.80;99.90;;;;;;4996845;28;20516;-83
2023/12/31 01:43:49;;;;;;;14.47;7.73;;;0.80;99.90;;;;;;4997042;28;20043;-83
2023/12/31 01:46:25;;;;;;;12.40;6.63;;;0.80;99.90;;;;;;4994455;28;20034;-83
2023/12/31 01:48:51;;;;;;;11.07;6.50;;;0.70;99.90;;;;;;4996825;28;20060;-83
2023/12/31 01:51:17;;;;;;;11.20;5.80;;;0.70;99.90;;;;;;4995793;28;20061;-83
2023/12/31 01:53:43;;;;;;;10.70;6.40;;;0.70;99.90;;;;;;4978365;28;21460;-83
2023/12/31 01:56:09;;;;;;;9.70;5.93;;;0.70;99.90;;;;;;4994428;28;20038;-82
2023/12/31 01:58:35;;;;;;;10.37;6.13;;;0.70;99.90;;;;;;4996009;28;20034;-83
2023/12/31 02:01:00;;;;;;;11.87;5.87;;;0.60;99.90;;;;;;4996409;28;20089;-83
2023/12/31 02:03:29;;;;;;;9.50;5.17;;;0.60;99.90;;;;;;4996067;28;20046;-83
2023/12/31 02:05:55;;;;;;;9.33;5.63;;;0.60;99.90;;;;;;4995736;28;20026;-83
2023/12/31 02:08:20;;;;;;;10.67;5.90;;;0.60;99.90;;;;;;4993946;28;20030;-83
2023/12/31 02:10:46;;;;;;;8.53;4.73;;;0.50;99.90;;;;;;4994614;28;20062;-83
2023/12/31 02:13:12;;;;;;;8.97;4.80;;;0.50;99.90;;;;;;4996950;28;20050;-83
2023/12/31 02:15:37;;;;;;;8.87;4.70;;;0.50;99.90;;;;;;4995146;28;20136;-83
2023/12/31 02:18:03;;;;;;;10.23;5.23;;;0.50;99.90;;;;;;4997243;28;20029;-83
2023/12/31 02:20:30;;;;;;;6.50;4.27;;;0.50;99.90;;;;;;4978813;28;20037;-83
2023/12/31 02:22:56;;;;;;;8.43;4.60;;;0.40;99.90;;;;;;4995936;28;20045;-83
2023/12/31 02:25:27;;;;;;;9.23;4.40;;;0.40;99.90;;;;;;4994620;28;21110;-83
2023/12/31 02:27:53;;;;;;;7.73;4.87;;;0.40;99.90;;;;;;4995913;28;20085;-83
2023/12/31 02:30:20;;;;;;;9.33;5.57;;;0.40;99.90;;;;;;4995681;28;20116;-83
2023/12/31 02:32:45;;;;;;;7.20;4.60;;;0.40;99.90;;;;;;4977863;28;20030;-83
2023/12/31 02:35:11;;;;;;;7.80;4.97;;;0.30;99.90;;;;;;4994090;28;20095;-83
2023/12/31 02:37:36;;;;;;;8.50;4.87;;;0.30;99.90;;;;;;4993900;28;20069;-83
2023/12/31 02:40:02;;;;;;;7.97;4.90;;;0.30;99.90;;;;;;4995567;28;20080;-83
2023/12/31 02:42:28;;;;;;;9.53;5.20;;;0.30;99.90;;;;;;4996027;28;20138;-82
2023/12/31 02:44:53;;;;;;;6.73;4.60;;;0.20;99.90;;;;;;4997391;28;20054;-83
2023/12/31 02:47:19;;;;;;;7.83;4.27;;;0.20;99.90;;;;;;4994149;28;20022;-82
2023/12/31 02:49:44;;;;;;;7.90;4.70;;;0.20;99.90;;;;;;4994911;28;20037;-83
2023/12/31 02:52:11;;;;;;;7.60;5.20;;;0.20;99.90;;;;;;4995959;28;20037;-83
2023/12/31 02:54:37;;;;;;;7.67;5.00;;;0.10;99.90;;;;;;4994434;28;20037;-83
2023/12/31 02:57:06;;;;;;;7.77;4.50;;;0.10;99.90;;;;;;4993392;28;20046;-83
2023/12/31 02:59:33;;;;;;;7.73;4.50;;;0.10;99.90;;;;;;4997788;28;20034;-83
2023/12/31 03:01:58;;;;;;;6.20;4.60;;;0.10;99.90;;;;;;4999230;28;20219;-83
2023/12/31 03:04:24;;;;;;;7.23;4.33;;;0.00;99.90;;;;;;4998590;28;20503;-82
2023/12/31 03:06:51;;;;;;;8.63;4.47;;;0.00;99.90;;;;;;4996909;28;20040;-83
2023/12/31 03:09:18;;;;;;;10.47;5.50;;;0.00;99.90;;;;;;4997273;28;20163;-83
2023/12/31 03:11:44;;;;;;;8.80;5.40;;;0.00;99.90;;;;;;4996777;28;20165;-83
2023/12/31 03:14:10;;;;;;;8.60;5.10;;;0.00;99.90;;;;;;4999274;28;20034;-82
2023/12/31 03:16:36;;;;;;;9.13;5.83;;;0.00;99.90;;;;;;4998246;28;20042;-83
2023/12/31 03:19:02;;;;;;;10.33;6.03;;;0.00;99.90;;;;;;5001468;28;20040;-82
2023/12/31 03:21:27;;;;;;;14.10;6.67;;;0.00;99.90;;;;;;4996396;28;20034;-83
2023/12/31 03:23:53;;;;;;;10.97;5.47;;;-0.10;99.90;;;;;;5002599;28;20042;-83
2023/12/31 03:26:19;;;;;;;10.87;6.13;;;-0.10;99.90;;;;;;4997637;28;20039;-83
2023/12/31 03:28:45;;;;;;;7.53;4.83;;;-0.10;99.90;;;;;;4998479;28;20033;-82
2023/12/31 03:31:10;;;;;;;9.40;5.10;;;-0.10;99.90;;;;;;4998736;28;20739;-82
2023/12/31 03:33:36;;;;;;;8.10;4.73;;;-0.20;99.90;;;;;;5000388;28;20022;-82
2023/12/31 03:36:02;;;;;;;8.50;5.07;;;-0.20;99.90;;;;;;5000060;28;20037;-83
2023/12/31 03:38:28;;;;;;;10.33;5.30;;;-0.20;99.90;;;;;;5003532;28;20036;-82
2023/12/31 03:40:53;;;;;;;10.47;5.20;;;-0.20;99.90;;;;;;5000676;28;20124;-84
2023/12/31 03:43:19;;;;;;;7.60;4.63;;;-0.20;99.90;;;;;;4985355;28;20072;-83
2023/12/31 03:45:44;;;;;;;8.77;4.90;;;-0.20;99.90;;;;;;5002406;28;20105;-83
2023/12/31 03:48:10;;;;;;;9.40;5.53;;;-0.30;99.90;;;;;;5002120;28;20034;-83
2023/12/31 03:50:36;;;;;;;9.97;5.93;;;-0.40;99.90;;;;;;5002909;28;20030;-83
2023/12/31 03:53:02;;;;;;;12.07;6.70;;;-0.40;99.90;;;;;;5003282;28;20137;-83
2023/12/31 03:55:27;;;;;;;10.67;6.87;;;-0.40;99.90;;;;;;5003286;28;20534;-82
2023/12/31 03:57:53;;;;;;;9.03;6.03;;;-0.40;99.90;;;;;;5003209;28;20026;-83
2023/12/31 04:00:18;;;;;;;10.03;6.43;;;-0.50;99.90;;;;;;5000363;28;20701;-83
2023/12/31 04:02:44;;;;;;;8.40;5.63;;;-0.50;99.90;;;;;;5002775;28;20073;-84
2023/12/31 04:05:11;;;;;;;10.93;6.33;;;-0.50;99.90;;;;;;5003884;28;20094;-82
2023/12/31 04:07:38;;;;;;;9.03;5.43;;;-0.50;99.90;;;;;;5004373;28;20061;-83
2023/12/31 04:10:03;;;;;;;9.63;5.97;;;-0.50;99.90;;;;;;5004937;28;20028;-83
2023/12/31 04:12:29;;;;;;;10.00;6.10;;;-0.50;99.90;;;;;;5004397;28;21576;-83
2023/12/31 04:14:55;;;;;;;11.77;6.07;;;-0.50;99.90;;;;;;5001863;28;20117;-83
2023/12/31 04:17:21;;;;;;;10.30;6.50;;;-0.50;99.90;;;;;;5002530;28;20057;-82
2023/12/31 04:19:47;;;;;;;9.27;5.60;;;-0.60;99.90;;;;;;5003450;28;20137;-83
2023/12/31 04:22:12;;;;;;;11.37;6.70;;;-0.50;99.90;;;;;;5002305;28;20038;-83
2023/12/31 04:24:39;;;;;;;9.57;5.17;;;-0.60;99.90;;;;;;5002194;28;20049;-83
2023/12/31 04:27:04;;;;;;;10.80;5.53;;;-0.60;99.90;;;;;;5001258;28;20128;-83
2023/12/31 04:29:30;;;;;;;7.07;4.93;;;-0.50;99.90;;;;;;5001886;28;20477;-83
2023/12/31 04:31:56;;;;;;;9.10;5.50;;;-0.50;99.90;;;;;;5002512;28;20053;-83
2023/12/31 04:34:21;;;;;;;7.97;5.30;;;-0.50;99.90;;;;;;5003399;28;20035;-83
2023/12/31 04:36:47;;;;;;;8.97;5.20;;;-0.50;99.90;;;;;;5003285;28;20037;-83
2023/12/31 04:39:13;;;;;;;8.60;5.03;;;-0.50;99.90;;;;;;5002757;28;20485;-83
2023/12/31 04:41:38;;;;;;;7.73;5.00;;;-0.50;99.90;;;;;;5000822;28;20808;-83
2023/12/31 04:44:04;;;;;;;8.50;5.50;;;-0.50;99.90;;;;;;5003526;28;20025;-82
2023/12/31 04:46:30;;;;;;;15.73;8.97;;;-0.50;99.90;;;;;;5002411;28;20057;-84
2023/12/31 04:48:55;;;;;;;18.17;8.00;;;-0.50;99.90;;;;;;4999848;28;20117;-84
2023/12/31 04:51:28;;;;;;;9.57;5.20;;;-0.50;99.90;;;;;;5001866;28;20038;-84
2023/12/31 04:53:55;;;;;;;9.00;3.93;;;-0.50;99.90;;;;;;5001004;28;20034;-84
2023/12/31 04:56:22;;;;;;;7.83;4.30;;;-0.50;99.90;;;;;;5002259;28;20477;-83
2023/12/31 04:58:52;;;;;;;6.83;4.13;;;-0.50;99.90;;;;;;5001518;28;20117;-83
2023/12/31 05:01:18;;;;;;;9.03;4.67;;;-0.50;99.90;;;;;;5002169;28;20033;-83
2023/12/31 05:03:45;;;;;;;7.33;4.43;;;-0.50;99.90;;;;;;5004137;28;20045;-83
2023/12/31 05:06:15;;;;;;;6.33;4.27;;;-0.40;99.90;;;;;;4985227;28;20084;-83
2023/12/31 05:08:44;;;;;;;7.03;4.20;;;-0.40;99.90;;;;;;5001004;28;20064;-83
2023/12/31 05:11:11;;;;;;;14.00;8.97;;;-0.40;99.90;;;;;;5001064;28;20033;-84
2023/12/31 05:13:41;;;;;;;23.30;13.57;;;-0.40;99.90;;;;;;4999211;28;20033;-82
2023/12/31 05:16:07;;;;;;;15.03;7.90;;;-0.40;99.90;;;;;;5000903;28;20688;-84
2023/12/31 05:18:33;;;;;;;8.67;5.30;;;-0.40;99.90;;;;;;4999919;28;20160;-83
2023/12/31 05:21:02;;;;;;;7.63;4.47;;;-0.40;99.90;;;;;;4999781;28;20468;-83
2023/12/31 05:23:30;;;;;;;6.10;4.30;;;-0.40;99.90;;;;;;4998802;28;20115;-83
2023/12/31 05:25:55;;;;;;;6.93;4.00;;;-0.40;99.90;;;;;;4998716;28;20541;-83
2023/12/31 05:28:21;;;;;;;7.70;4.00;;;-0.40;99.90;;;;;;4997718;28;20035;-84
2023/12/31 05:30:46;;;;;;;6.73;4.07;;;-0.40;99.90;;;;;;4997842;28;20034;-82
2023/12/31 05:33:12;;;;;;;7.80;4.50;;;-0.40;99.90;;;;;;4997035;28;20125;-84
2023/12/31 05:35:37;;;;;;;9.57;4.30;;;-0.40;99.90;;;;;;4998647;28;20038;-83
2023/12/31 05:38:03;;;;;;;5.77;3.93;;;-0.40;99.90;;;;;;4997502;28;20033;-83
2023/12/31 05:40:29;;;;;;;8.00;4.27;;;-0.50;99.90;;;;;;5000562;28;20146;-83
2023/12/31 05:42:54;;;;;;;7.67;4.30;;;-0.50;99.90;;;;;;5002784;28;20038;-82
2023/12/31 05:45:20;;;;;;;8.67;4.67;;;-0.50;99.90;;;;;;5003088;28;20121;-83
2023/12/31 05:47:46;;;;;;;9.37;4.53;;;-0.50;99.90;;;;;;5001137;28;20731;-83
2023/12/31 05:50:13;;;;;;;11.03;4.40;;;-0.60;99.90;;;;;;5002273;28;20637;-83
2023/12/31 05:52:39;;;;;;;9.67;4.73;;;-0.60;99.90;;;;;;5002874;28;20034;-83
2023/12/31 05:55:05;;;;;;;9.93;4.63;;;-0.60;99.90;;;;;;5001294;28;20722;-83
2023/12/31 05:57:30;;;;;;;10.47;4.80;;;-0.60;99.90;;;;;;5000165;28;20037;-83
2023/12/31 05:59:56;;;;;;;7.97;4.50;;;-0.60;99.90;;;;;;5002181;28;20026;-83
2023/12/31 06:02:22;;;;;;;7.87;4.20;;;-0.60;99.90;;;;;;5002482;28;20848;-83
2023/12/31 06:04:47;;;;;;;10.53;4.43;;;-0.60;99.90;;;;;;5000349;28;20401;-83
2023/12/31 06:07:13;;;;;;;7.57;4.50;;;-0.70;99.90;;;;;;5000258;28;20033;-83
2023/12/31 06:09:38;;;;;;;6.50;3.80;;;-0.60;99.90;;;;;;5000453;28;20037;-83
2023/12/31 06:12:04;;;;;;;6.53;4.57;;;-0.60;99.90;;;;;;4999992;28;20033;-83
2023/12/31 06:14:30;;;;;;;6.17;4.07;;;-0.50;99.90;;;;;;5000246;28;20057;-83
2023/12/31 06:16:55;;;;;;;8.40;4.13;;;-0.60;99.90;;;;;;5000763;28;20105;-83
2023/12/31 06:19:21;;;;;;;8.50;4.13;;;-0.60;99.90;;;;;;5001119;28;20040;-83
2023/12/31 06:21:46;;;;;;;7.43;4.20;;;-0.50;99.90;;;;;;5001106;28;20374;-83
2023/12/31 06:24:12;;;;;;;6.60;4.30;;;-0.50;99.90;;;;;;5000150;28;20037;-84
2023/12/31 06:26:38;;;;;;;7.53;4.10;;;-0.50;99.90;;;;;;4999899;28;20045;-83
2023/12/31 06:29:03;;;;;;;7.10;3.77;;;-0.50;99.90;;;;;;5001003;28;20030;-83
2023/12/31 06:31:29;;;;;;;6.53;4.23;;;-0.50;99.90;;;;;;4984036;28;20105;-83
2023/12/31 06:33:54;;;;;;;6.03;3.80;;;-0.50;99.90;;;;;;4998972;28;20189;-83
2023/12/31 06:36:20;;;;;;;6.27;3.97;;;-0.40;99.90;;;;;;4999968;28;20052;-84
2023/12/31 06:38:45;;;;;;;7.60;4.13;;;-0.50;99.90;;;;;;5000749;28;20038;-84
2023/12/31 06:41:11;;;;;;;6.17;4.10;;;-0.50;99.90;;;;;;4999953;28;20041;-83
2023/12/31 06:43:37;;;;;;;6.57;3.93;;;-0.50;99.90;;;;;;5000627;28;20041;-83
2023/12/31 06:46:03;;;;;;;8.87;5.53;;;-0.60;99.90;;;;;;4999143;28;20061;-83
2023/12/31 06:48:28;;;;;;;11.00;5.77;;;-0.60;99.90;;;;;;4998884;28;20030;-83
2023/12/31 06:50:54;;;;;;;19.30;8.63;;;-0.70;99.90;;;;;;4997634;28;20026;-83
2023/12/31 06:53:20;;;;;;;11.47;7.13;;;-0.70;99.90;;;;;;4998993;28;21330;-83
2023/12/31 06:55:46;;;;;;;22.80;12.40;;;-0.80;99.90;;;;;;5000476;28;20139;-83
2023/12/31 06:58:13;;;;;;;30.93;16.93;;;-0.80;99.90;;;;;;4997296;28;20050;-84
2023/12/31 07:00:39;;;;;;;18.73;9.40;;;-0.80;99.90;;;;;;4999186;28;20033;-83
2023/12/31 07:03:05;;;;;;;17.97;9.13;;;-0.80;99.90;;;;;;4999531;28;20045;-83
2023/12/31 07:05:31;;;;;;;20.20;9.83;;;-0.70;99.90;;;;;;4998937;28;20064;-84
2023/12/31 07:07:56;;;;;;;11.10;6.80;;;-0.70;99.90;;;;;;5000201;28;20045;-83
2023/12/31 07:10:22;;;;;;;10.17;6.13;;;-0.70;99.90;;;;;;4999508;28;20081;-83
2023/12/31 07:12:47;;;;;;;9.70;5.27;;;-0.70;99.90;;;;;;4999007;28;20038;-83
2023/12/31 07:15:15;;;;;;;8.00;4.87;;;-0.70;99.90;;;;;;4994257;28;20045;-84
2023/12/31 07:17:40;;;;;;;10.13;5.70;;;-0.60;99.90;;;;;;4995090;28;20038;-83
2023/12/31 07:20:06;;;;;;;20.47;10.70;;;-0.60;99.90;;;;;;4996705;28;20038;-83
2023/12/31 07:22:32;;;;;;;10.30;5.27;;;-0.50;99.90;;;;;;4994711;28;20042;-82
2023/12/31 07:25:01;;;;;;;8.20;4.43;;;-0.50;99.90;;;;;;4997899;28;20570;-82
2023/12/31 07:27:27;;;;;;;7.80;4.53;;;-0.40;99.90;;;;;;4997788;28;20049;-82
2023/12/31 07:29:52;;;;;;;6.43;3.93;;;-0.40;99.90;;;;;;4997312;28;20037;-83
2023/12/31 07:32:18;;;;;;;6.23;3.70;;;-0.30;99.90;;;;;;4999030;28;20042;-83
2023/12/31 07:34:44;;;;;;;7.40;4.40;;;-0.30;99.90;;;;;;4994922;28;20589;-83
2023/12/31 07:37:09;;;;;;;8.00;3.57;;;-0.30;99.90;;;;;;4996508;28;20662;-83
2023/12/31 07:39:35;;;;;;;6.00;3.70;;;-0.20;99.90;;;;;;4991204;28;20038;-83
2023/12/31 07:42:03;;;;;;;6.20;4.00;;;-0.20;99.90;;;;;;4976098;28;20038;-82
2023/12/31 07:44:29;;;;;;;11.43;5.60;;;-0.20;99.90;;;;;;4980999;28;20037;-83
2023/12/31 07:46:54;;;;;;;9.87;5.93;;;-0.20;99.90;;;;;;4978928;28;20034;-78
2023/12/31 07:49:20;;;;;;;10.67;5.67;;;-0.20;99.90;;;;;;4995524;28;20180;-82
2023/12/31 07:51:45;;;;;;;9.57;5.27;;;-0.20;99.90;;;;;;4997739;28;20062;-82
2023/12/31 07:54:11;;;;;;;8.57;5.10;;;-0.10;99.90;;;;;;4999006;28;20030;-82
2023/12/31 07:56:36;;;;;;;9.20;4.90;;;-0.10;99.90;;;;;;4998419;28;20026;-82
2023/12/31 07:59:03;;;;;;;7.77;4.80;;;-0.10;99.90;;;;;;4994969;28;20108;-82
2023/12/31 08:01:28;;;;;;;6.13;4.03;;;-0.10;99.90;;;;;;4992292;28;20066;-82
2023/12/31 08:03:54;;;;;;;7.07;3.63;;;0.00;99.90;;;;;;4992215;28;20074;-81
2023/12/31 08:06:19;;;;;;;6.80;4.10;;;0.00;99.90;;;;;;4991717;28;20133;-82
2023/12/31 08:08:45;;;;;;;7.77;5.30;;;0.10;99.90;;;;;;4991362;28;20038;-84
2023/12/31 08:11:12;;;;;;;10.77;6.00;;;0.10;99.90;;;;;;4997516;28;20082;-82
2023/12/31 08:13:38;;;;;;;10.10;5.60;;;0.20;99.90;;;;;;4993835;28;20030;-82
2023/12/31 08:16:05;;;;;;;9.67;6.50;;;0.20;99.90;;;;;;4991778;28;20049;-82
2023/12/31 08:18:31;;;;;;;13.53;7.10;;;0.20;99.90;;;;;;4991235;28;20034;-81
2023/12/31 08:20:57;;;;;;;13.23;7.23;;;0.30;99.90;;;;;;4995531;28;20038;-82
2023/12/31 08:23:23;;;;;;;11.63;6.80;;;0.30;99.90;;;;;;4996899;28;20030;-82
2023/12/31 08:25:48;;;;;;;10.23;6.97;;;0.30;99.90;;;;;;4981643;28;20224;-82
2023/12/31 08:28:14;;;;;;;10.00;6.20;;;0.40;99.90;;;;;;4998289;28;21759;-83
2023/12/31 08:30:39;;;;;;;9.27;6.07;;;0.40;99.90;;;;;;5000245;28;20034;-82
2023/12/31 08:33:05;;;;;;;10.57;5.10;;;0.50;99.90;;;;;;4981366;28;20046;-82
2023/12/31 08:35:31;;;;;;;11.20;5.70;;;0.50;99.90;;;;;;4995694;28;20420;-82
2023/12/31 08:37:56;;;;;;;10.73;6.83;;;0.60;99.90;;;;;;4996390;28;20038;-81
2023/12/31 08:40:22;;;;;;;9.20;6.07;;;0.60;99.90;;;;;;4997645;28;20789;-81
2023/12/31 08:42:47;;;;;;;9.33;5.60;;;0.70;99.90;;;;;;4993183;28;20030;-82
2023/12/31 08:45:13;;;;;;;8.20;6.27;;;0.70;99.90;;;;;;4997242;28;20030;-82
2023/12/31 08:47:39;;;;;;;10.13;7.63;;;0.80;99.90;;;;;;4996848;28;20537;-81
2023/12/31 08:50:09;;;;;;;11.80;6.67;;;0.90;99.90;;;;;;4997932;28;20114;-82
2023/12/31 08:52:38;;;;;;;11.37;7.03;;;1.00;99.90;;;;;;4996411;28;20049;-82
2023/12/31 08:55:05;;;;;;;19.27;10.50;;;1.10;99.90;;;;;;4997893;28;20026;-81
2023/12/31 08:57:31;;;;;;;10.23;6.43;;;1.10;99.90;;;;;;5000129;28;20110;-81
2023/12/31 08:59:56;;;;;;;10.20;5.00;;;1.20;99.90;;;;;;4999039;28;20158;-82
2023/12/31 09:02:22;;;;;;;7.43;4.63;;;1.30;99.90;;;;;;4996868;28;20046;-81
2023/12/31 09:04:47;;;;;;;7.20;5.47;;;1.40;99.90;;;;;;4996258;28;20066;-82
2023/12/31 09:07:13;;;;;;;7.67;5.70;;;1.50;99.90;;;;;;4997004;28;20094;-82
2023/12/31 09:09:38;;;;;;;8.83;5.10;;;1.60;99.90;;;;;;4995798;28;20097;-82
2023/12/31 09:12:04;;;;;;;9.27;5.63;;;1.70;99.90;;;;;;4997043;28;20034;-82
2023/12/31 09:14:31;;;;;;;8.90;5.43;;;1.80;99.90;;;;;;4997135;28;20026;-82
2023/12/31 09:16:56;;;;;;;8.33;5.07;;;1.80;99.90;;;;;;4995529;28;20053;-83
2023/12/31 09:19:22;;;;;;;7.27;5.00;;;1.90;99.90;;;;;;4990108;28;20086;-83
2023/12/31 09:21:47;;;;;;;8.17;4.90;;;1.90;99.90;;;;;;4993572;28;20034;-81
2023/12/31 09:24:13;;;;;;;9.37;5.50;;;2.00;99.90;;;;;;4992061;28;20037;-83
2023/12/31 09:26:38;;;;;;;6.20;4.50;;;2.00;99.90;;;;;;4994696;28;20042;-82
2023/12/31 09:29:04;;;;;;;7.50;4.87;;;2.00;99.90;;;;;;4992294;28;20501;-82
2023/12/31 09:31:29;;;;;;;8.00;4.73;;;2.00;99.90;;;;;;4993344;28;20026;-82
2023/12/31 09:33:55;;;;;;;8.87;4.37;;;2.00;99.90;;;;;;4992785;28;20035;-83
2023/12/31 09:36:21;;;;;;;6.07;4.60;;;2.00;99.90;;;;;;4992472;28;20030;-82
2023/12/31 09:38:46;;;;;;;7.03;4.73;;;2.00;99.90;;;;;;4993556;28;20043;-82
2023/12/31 09:41:23;;;;;;;7.40;5.00;;;2.10;99.90;;;;;;4972760;28;20133;-82
2023/12/31 09:43:51;;;;;;;7.70;5.00;;;2.10;99.90;;;;;;4991457;28;20839;-83
2023/12/31 09:46:20;;;;;;;11.47;5.57;;;2.10;99.90;;;;;;4991543;28;20634;-82
2023/12/31 09:48:48;;;;;;;7.10;4.73;;;2.20;99.90;;;;;;4992506;28;20034;-82
2023/12/31 09:51:15;;;;;;;10.40;5.17;;;2.20;99.90;;;;;;4995013;28;20050;-82
2023/12/31 09:53:44;;;;;;;8.77;5.20;;;2.20;99.90;;;;;;4990724;28;20038;-82
2023/12/31 09:56:10;;;;;;;7.40;4.60;;;2.30;99.90;;;;;;4988656;28;20028;-82
2023/12/31 09:58:36;;;;;;;7.00;4.43;;;2.30;99.90;;;;;;4992291;28;20038;-82
2023/12/31 10:01:02;;;;;;;7.97;4.80;;;2.40;99.90;;;;;;4991871;28;20068;-83
2023/12/31 10:03:28;;;;;;;8.47;5.10;;;2.40;99.90;;;;;;4992641;28;20683;-82
2023/12/31 10:05:54;;;;;;;8.20;5.20;;;2.50;99.90;;;;;;4991592;28;20341;-82
2023/12/31 10:08:21;;;;;;;10.17;5.03;;;2.50;99.90;;;;;;4991657;28;20022;-82
2023/12/31 10:10:48;;;;;;;11.87;5.03;;;2.60;99.90;;;;;;4994049;28;20022;-81
2023/12/31 10:13:17;;;;;;;7.87;5.17;;;2.60;99.90;;;;;;4990770;28;20030;-82
2023/12/31 10:15:43;;;;;;;10.67;6.77;;;2.70;99.90;;;;;;4991672;28;20026;-82
2023/12/31 10:18:09;;;;;;;14.30;7.90;;;2.90;99.90;;;;;;4978045;28;20130;-82
2023/12/31 10:20:38;;;;;;;13.03;7.37;;;3.00;99.90;;;;;;4962667;28;20038;-83
2023/12/31 10:23:04;;;;;;;12.63;7.77;;;3.00;99.90;;;;;;4985858;28;20046;-80
2023/12/31 10:25:30;;;;;;;10.87;6.67;;;3.00;99.90;;;;;;4975744;28;20054;-82
2023/12/31 10:27:57;;;;;;;9.10;5.90;;;3.00;99.90;;;;;;4974728;28;20125;-81
2023/12/31 10:30:22;;;;;;;10.23;6.73;;;3.10;99.90;;;;;;4979988;28;20099;-82
2023/12/31 10:32:51;;;;;;;9.77;6.03;;;3.10;99.90;;;;;;4982639;28;20038;-83
2023/12/31 10:35:20;;;;;;;11.13;5.67;;;3.20;99.90;;;;;;4982945;28;20073;-82
2023/12/31 10:37:47;;;;;;;10.27;5.70;;;3.30;99.90;;;;;;4984571;28;20796;-81
2023/12/31 10:40:22;;;;;;;9.90;5.37;;;3.40;99.90;;;;;;4993907;28;20037;-81
2023/12/31 10:42:50;;;;;;;9.70;6.00;;;3.60;99.90;;;;;;4995262;28;20044;-81
2023/12/31 10:45:17;;;;;;;13.17;7.57;;;3.70;99.90;;;;;;4995884;28;20026;-81
2023/12/31 10:47:47;;;;;;;11.27;6.50;;;3.80;99.90;;;;;;4994657;28;20602;-81
2023/12/31 10:50:17;;;;;;;10.20;6.87;;;3.90;99.90;;;;;;4995846;28;20112;-81
2023/12/31 10:52:44;;;;;;;9.10;5.67;;;4.00;99.90;;;;;;4996361;28;20074;-82
2023/12/31 10:55:13;;;;;;;8.20;5.70;;;4.10;99.90;;;;;;4998067;28;20034;-82
2023/12/31 10:57:42;;;;;;;8.83;5.60;;;4.20;99.90;;;;;;4985164;28;20057;-82
2023/12/31 11:00:11;;;;;;;9.93;5.97;;;4.20;99.90;;;;;;4995487;28;20037;-82
2023/12/31 11:02:37;;;;;;;8.17;5.97;;;4.30;99.90;;;;;;5001691;28;20110;-82
2023/12/31 11:05:07;;;;;;;9.43;5.80;;;4.50;99.90;;;;;;5000381;28;20054;-82
2023/12/31 11:07:36;;;;;;;10.07;7.10;;;4.60;99.90;;;;;;5001219;28;20065;-83
2023/12/31 11:10:02;;;;;;;13.87;8.00;;;4.70;99.90;;;;;;4997835;28;20043;-84
2023/12/31 11:12:28;;;;;;;12.73;7.40;;;4.80;99.90;;;;;;5000026;28;20045;-84
2023/12/31 11:15:05;;;;;;;12.00;7.47;;;4.90;99.90;;;;;;5001507;28;20089;-83
2023/12/31 11:18:08;;;;;;;13.07;8.40;;;5.00;99.90;;;;;;4982040;28;20385;-82
2023/12/31 11:21:11;;;;;;;10.00;5.63;;;5.20;99.90;;;;;;4997928;28;20030;-82
2023/12/31 11:23:49;;;;;;;8.60;5.67;;;5.30;99.90;;;;;;4998397;28;20049;-83
2023/12/31 11:26:17;;;;;;;9.20;5.37;;;5.50;99.90;;;;;;4999220;28;20081;-82
2023/12/31 11:28:50;;;;;;;11.63;4.80;;;5.50;99.90;;;;;;5001608;28;20030;-83
2023/12/31 11:31:15;;;;;;;9.67;5.00;;;5.70;99.90;;;;;;5002893;28;20074;-82
2023/12/31 11:33:41;;;;;;;6.80;4.70;;;5.80;99.90;;;;;;4992355;28;20078;-83
2023/12/31 11:36:12;;;;;;;8.90;4.00;;;5.90;99.90;;;;;;5002216;28;20058;-84
2023/12/31 11:38:59;;;;;;;6.13;3.87;;;6.00;99.90;;;;;;5001857;28;20065;-84
2023/12/31 11:41:30;;;;;;;6.50;3.87;;;6.10;99.90;;;;;;4994115;28;20028;-85
2023/12/31 11:43:56;;;;;;;8.83;4.10;;;6.30;99.90;;;;;;4996259;28;20517;-85
2023/12/31 11:46:32;;;;;;;7.80;4.30;;;6.40;99.90;;;;;;4968715;28;20045;-85
2023/12/31 11:48:58;;;;;;;7.40;4.40;;;6.50;99.90;;;;;;4996833;28;20034;-85
2023/12/31 11:51:28;;;;;;;6.10;4.27;;;6.60;99.90;;;;;;4996724;28;20090;-85
2023/12/31 11:53:54;;;;;;;7.47;4.80;;;6.70;99.90;;;;;;4997102;28;20030;-84
2023/12/31 11:56:20;;;;;;;9.47;5.50;;;6.80;99.90;;;;;;4997187;28;20231;-86
2023/12/31 11:58:46;;;;;;;7.90;4.50;;;6.90;99.90;;;;;;5001142;28;20489;-82
2023/12/31 12:01:12;;;;;;;9.63;5.17;;;6.90;99.90;;;;;;5005142;28;20052;-79
2023/12/31 12:03:38;;;;;;;9.77;5.30;;;7.10;99.90;;;;;;5005525;28;20028;-79
2023/12/31 12:06:04;;;;;;;11.23;5.87;;;7.10;99.90;;;;;;5004526;28;20037;-81
2023/12/31 12:08:30;;;;;;;16.43;8.10;;;7.20;99.90;;;;;;5007255;28;20034;-81
2023/12/31 12:10:56;;;;;;;17.23;8.60;;;7.30;99.90;;;;;;5005808;28;20046;-81
2023/12/31 12:13:21;;;;;;;22.63;10.30;;;7.30;99.90;;;;;;5007744;28;20030;-81
2023/12/31 12:15:47;;;;;;;24.20;10.27;;;7.40;99.90;;;;;;5006098;28;20020;-81
2023/12/31 12:18:21;;;;;;;24.10;10.73;;;7.50;99.90;;;;;;5006895;28;20041;-81
2023/12/31 12:20:48;;;;;;;18.92;7.50;;;7.50;99.90;;;;;;5006015;28;20034;-81
2023/12/31 12:23:18;;;;;;;12.73;6.50;;;7.60;99.90;;;;;;5006525;28;20034;-82
2023/12/31 12:25:44;;;;;;;12.50;6.20;;;7.70;99.90;;;;;;5007247;28;20022;-81
2023/12/31 12:28:10;;;;;;;8.57;4.93;;;7.70;99.90;;;;;;5006822;28;20018;-81
2023/12/31 12:30:38;;;;;;;10.07;4.90;;;7.80;99.90;;;;;;4989705;28;20034;-81
2023/12/31 12:33:05;;;;;;;8.63;4.90;;;7.80;99.90;;;;;;5006681;28;20030;-82
2023/12/31 12:35:31;;;;;;;10.00;5.20;;;7.90;99.90;;;;;;5007306;28;20018;-81
2023/12/31 12:37:57;;;;;;;9.93;4.50;;;8.00;99.90;;;;;;5006457;28;20049;-81
2023/12/31 12:40:22;;;;;;;12.57;4.93;;;8.00;99.90;;;;;;5004200;28;20026;-81
2023/12/31 12:42:48;;;;;;;9.13;4.77;;;8.00;99.90;;;;;;5005934;28;20056;-81
2023/12/31 12:45:16;;;;;;;7.77;4.90;;;8.00;99.90;;;;;;5006397;28;20042;-80